createdAt,value
2023-01-07T00:02:09.687Z,4.60
2023-01-07T00:04:37.557Z,4.80
2023-01-07T00:07:05.481Z,4.53
2023-01-07T00:09:33.374Z,4.97
2023-01-07T00:12:01.296Z,4.20
2023-01-07T00:14:29.185Z,4.47
2023-01-07T00:16:57.091Z,4.47
2023-01-07T00:19:26.320Z,4.43
2023-01-07T00:21:54.905Z,4.93
2023-01-07T00:24:22.822Z,4.43
2023-01-07T00:26:50.718Z,4.60
2023-01-07T00:29:19.188Z,4.53
2023-01-07T00:31:47.250Z,4.13
2023-01-07T00:34:15.815Z,4.60
2023-01-07T00:36:47.257Z,4.87
2023-01-07T00:39:17.102Z,4.30
2023-01-07T00:42:07.421Z,4.43
2023-01-07T00:44:36.868Z,4.40
2023-01-07T00:47:04.903Z,4.00
2023-01-07T00:49:32.839Z,4.37
2023-01-07T00:52:02.126Z,4.57
2023-01-07T00:54:30.209Z,4.57
2023-01-07T00:56:58.333Z,4.40
2023-01-07T00:59:27.095Z,4.30
2023-01-07T01:01:55.060Z,3.90
2023-01-07T01:04:23.116Z,4.70
2023-01-07T01:06:51.089Z,4.50
2023-01-07T01:09:22.267Z,4.63
2023-01-07T01:11:50.202Z,4.20
2023-01-07T01:14:18.101Z,4.13
2023-01-07T01:16:47.107Z,3.67
2023-01-07T01:19:15.044Z,4.07
2023-01-07T01:21:42.923Z,4.00
2023-01-07T01:24:11.437Z,4.03
2023-01-07T01:26:40.676Z,3.80
2023-01-07T01:29:08.550Z,3.73
2023-01-07T01:31:36.642Z,3.90
2023-01-07T01:34:05.597Z,3.40
2023-01-07T01:36:35.125Z,4.07
2023-01-07T01:39:03.229Z,3.47
2023-01-07T01:41:33.543Z,3.40
2023-01-07T01:44:03.828Z,3.43
2023-01-07T01:46:36.064Z,3.67
2023-01-07T01:49:10.920Z,3.60
2023-01-07T01:51:42.827Z,3.93
2023-01-07T01:54:15.944Z,3.60
2023-01-07T01:56:50.966Z,3.80
2023-01-07T01:59:23.252Z,3.60
2023-01-07T02:01:52.210Z,3.60
2023-01-07T02:04:22.773Z,3.83
2023-01-07T02:06:55.779Z,3.40
2023-01-07T02:09:25.258Z,3.50
2023-01-07T02:12:00.956Z,3.30
2023-01-07T02:14:45.374Z,3.50
2023-01-07T02:17:20.316Z,3.60
2023-01-07T02:20:21.780Z,3.50
2023-01-07T02:23:27.009Z,3.10
2023-01-07T02:26:41.187Z,3.10
2023-01-07T02:29:39.968Z,3.13
2023-01-07T02:32:26.487Z,3.03
2023-01-07T02:35:04.166Z,3.10
2023-01-07T02:37:39.473Z,2.90
2023-01-07T02:40:14.958Z,2.90
2023-01-07T02:42:53.917Z,3.00
2023-01-07T02:45:31.274Z,3.07
2023-01-07T02:48:04.862Z,3.20
2023-01-07T02:50:32.774Z,3.00
2023-01-07T02:53:00.750Z,3.10
2023-01-07T02:55:37.159Z,2.87
2023-01-07T02:58:45.887Z,2.70
2023-01-07T03:01:39.445Z,2.83
2023-01-07T03:04:23.671Z,3.17
2023-01-07T03:07:04.333Z,3.40
2023-01-07T03:09:40.945Z,3.30
2023-01-07T03:12:14.379Z,3.10
2023-01-07T03:14:45.861Z,3.00
2023-01-07T03:17:21.429Z,3.00
2023-01-07T03:19:55.165Z,3.03
2023-01-07T03:22:26.893Z,3.10
2023-01-07T03:24:57.976Z,3.30
2023-01-07T03:27:28.406Z,3.13
2023-01-07T03:29:56.868Z,2.83
2023-01-07T03:32:27.952Z,3.00
2023-01-07T03:34:57.617Z,3.00
2023-01-07T03:37:27.728Z,3.03
2023-01-07T03:39:56.043Z,2.93
2023-01-07T03:42:39.885Z,3.20
2023-01-07T03:45:14.268Z,2.73
2023-01-07T03:47:46.621Z,2.50
2023-01-07T03:50:17.555Z,2.90
2023-01-07T03:52:48.406Z,2.97
2023-01-07T03:55:17.948Z,2.63
2023-01-07T03:57:46.811Z,2.87
2023-01-07T04:00:16.094Z,2.80
2023-01-07T04:02:50.438Z,2.97
2023-01-07T04:05:27.299Z,3.20
2023-01-07T04:07:55.508Z,3.00
2023-01-07T04:10:25.566Z,2.40
2023-01-07T04:12:53.841Z,2.70
2023-01-07T04:15:21.929Z,2.70
2023-01-07T04:17:49.829Z,2.60
2023-01-07T04:20:18.361Z,2.80
2023-01-07T04:22:47.706Z,2.57
2023-01-07T04:25:15.915Z,2.60
2023-01-07T04:27:43.808Z,2.63
2023-01-07T04:30:13.174Z,2.87
2023-01-07T04:32:41.135Z,2.50
2023-01-07T04:35:10.195Z,2.73
2023-01-07T04:37:38.208Z,2.40
2023-01-07T04:40:09.872Z,2.33
2023-01-07T04:42:38.573Z,2.73
2023-01-07T04:45:09.560Z,2.27
2023-01-07T04:47:37.631Z,2.50
2023-01-07T04:50:06.286Z,2.47
2023-01-07T04:52:36.291Z,2.30
2023-01-07T04:55:05.096Z,2.50
2023-01-07T04:57:34.674Z,2.47
2023-01-07T05:00:02.632Z,2.57
2023-01-07T05:02:31.903Z,2.60
2023-01-07T05:05:00.176Z,2.60
2023-01-07T05:07:29.742Z,2.10
2023-01-07T05:09:59.089Z,2.70
2023-01-07T05:12:27.226Z,2.63
2023-01-07T05:14:56.559Z,2.10
2023-01-07T05:17:24.468Z,2.40
2023-01-07T05:19:52.927Z,2.47
2023-01-07T05:22:20.985Z,2.27
2023-01-07T05:24:49.793Z,2.50
2023-01-07T05:27:19.097Z,2.20
2023-01-07T05:29:47.068Z,2.30
2023-01-07T05:32:16.364Z,2.17
2023-01-07T05:34:44.612Z,2.20
2023-01-07T05:37:12.565Z,2.07
2023-01-07T05:39:42.261Z,2.07
2023-01-07T05:42:10.416Z,1.97
2023-01-07T05:44:38.353Z,1.90
2023-01-07T05:47:06.352Z,1.90
2023-01-07T05:49:35.740Z,2.10
2023-01-07T05:52:03.685Z,1.70
2023-01-07T05:54:31.633Z,2.00
2023-01-07T05:56:59.624Z,1.73
2023-01-07T05:59:27.504Z,1.70
2023-01-07T06:01:55.508Z,1.80
2023-01-07T06:04:23.531Z,1.63
2023-01-07T06:06:52.787Z,1.80
2023-01-07T06:09:20.691Z,1.80
2023-01-07T06:11:49.446Z,1.80
2023-01-07T06:14:17.378Z,1.40
2023-01-07T06:16:45.239Z,1.47
2023-01-07T06:19:13.283Z,1.50
2023-01-07T06:21:41.154Z,1.50
2023-01-07T06:24:11.829Z,1.47
2023-01-07T06:26:39.749Z,1.70
2023-01-07T06:29:07.681Z,1.50
2023-01-07T06:31:35.833Z,1.67
2023-01-07T06:34:03.819Z,1.40
2023-01-07T06:36:31.688Z,1.63
2023-01-07T06:38:59.551Z,1.57
2023-01-07T06:41:28.807Z,1.50
2023-01-07T06:43:56.751Z,1.63
2023-01-07T06:46:24.846Z,1.60
2023-01-07T06:48:52.819Z,1.60
2023-01-07T06:51:20.756Z,1.60
2023-01-07T06:53:48.644Z,1.57
2023-01-07T06:56:16.509Z,1.60
2023-01-07T06:58:45.801Z,1.60
2023-01-07T07:01:13.835Z,1.43
2023-01-07T07:03:41.825Z,1.70
2023-01-07T07:06:09.761Z,1.73
2023-01-07T07:08:37.676Z,1.70
2023-01-07T07:11:05.938Z,1.50
2023-01-07T07:13:33.842Z,1.60
2023-01-07T07:16:03.293Z,1.77
2023-01-07T07:18:31.533Z,1.70
2023-01-07T07:20:59.625Z,1.60
2023-01-07T07:23:27.503Z,1.87
2023-01-07T07:25:55.413Z,1.67
2023-01-07T07:28:23.255Z,1.50
2023-01-07T07:30:51.199Z,1.80
2023-01-07T07:33:20.481Z,1.50
2023-01-07T07:35:48.779Z,1.47
2023-01-07T07:38:17.948Z,1.50
2023-01-07T07:40:46.240Z,1.67
2023-01-07T07:43:14.465Z,1.70
2023-01-07T07:45:42.918Z,1.53
2023-01-07T07:48:13.209Z,1.90
2023-01-07T07:50:42.858Z,1.63
2023-01-07T07:53:11.427Z,1.83
2023-01-07T07:55:40.086Z,1.80
2023-01-07T07:58:08.299Z,2.00
2023-01-07T08:00:36.229Z,1.60
2023-01-07T08:03:04.395Z,1.53
2023-01-07T08:05:32.588Z,1.50
2023-01-07T08:08:02.026Z,1.43
2023-01-07T08:10:30.508Z,1.63
2023-01-07T08:12:58.400Z,1.57
2023-01-07T08:15:26.296Z,1.50
2023-01-07T08:18:00.939Z,1.50
2023-01-07T08:20:29.764Z,1.40
2023-01-07T08:23:01.205Z,1.60
2023-01-07T08:25:30.467Z,1.70
2023-01-07T08:27:59.100Z,1.60
2023-01-07T08:30:28.123Z,1.60
2023-01-07T08:32:56.279Z,1.90
2023-01-07T08:35:24.711Z,1.57
2023-01-07T08:37:52.681Z,1.70
2023-01-07T08:40:21.969Z,1.40
2023-01-07T08:42:49.889Z,1.60
2023-01-07T08:45:18.679Z,1.70
2023-01-07T08:47:48.376Z,1.50
2023-01-07T08:50:16.373Z,1.47
2023-01-07T08:52:46.735Z,1.30
2023-01-07T08:55:14.815Z,1.50
2023-01-07T08:57:44.220Z,1.60
2023-01-07T09:00:15.699Z,1.30
2023-01-07T09:02:43.870Z,1.50
2023-01-07T09:05:12.460Z,1.50
2023-01-07T09:07:40.385Z,1.50
2023-01-07T09:10:10.810Z,1.40
2023-01-07T09:12:39.171Z,1.40
2023-01-07T09:15:10.259Z,1.40
2023-01-07T09:17:38.371Z,1.40
2023-01-07T09:20:07.939Z,1.40
2023-01-07T09:22:37.879Z,1.60
2023-01-07T09:25:06.916Z,1.50
2023-01-07T09:27:34.952Z,1.53
2023-01-07T09:30:02.978Z,1.30
2023-01-07T09:32:32.232Z,1.40
2023-01-07T09:35:00.112Z,1.60
2023-01-07T09:37:27.995Z,1.37
2023-01-07T09:39:55.912Z,1.30
2023-01-07T09:42:27.688Z,1.30
2023-01-07T09:45:10.888Z,1.40
2023-01-07T09:47:45.619Z,1.60
2023-01-07T09:50:25.002Z,1.40
2023-01-07T09:52:56.990Z,1.50
2023-01-07T09:55:29.748Z,1.57
2023-01-07T09:57:57.640Z,1.33
2023-01-07T10:00:26.702Z,1.30
2023-01-07T10:03:13.840Z,1.20
2023-01-07T10:05:50.651Z,1.40
2023-01-07T10:08:32.565Z,1.20
2023-01-07T10:11:08.910Z,1.30
2023-01-07T10:13:55.680Z,1.40
2023-01-07T10:16:29.337Z,1.40
2023-01-07T10:19:04.394Z,1.33
2023-01-07T10:21:40.956Z,1.30
2023-01-07T10:24:16.436Z,1.30
2023-01-07T10:26:48.254Z,1.33
2023-01-07T10:29:21.717Z,1.47
2023-01-07T10:31:50.725Z,1.57
2023-01-07T10:34:24.536Z,1.40
2023-01-07T10:37:02.688Z,1.40
2023-01-07T10:39:41.794Z,1.50
2023-01-07T10:42:20.619Z,1.43
2023-01-07T10:45:27.242Z,1.20
2023-01-07T10:48:16.596Z,1.23
2023-01-07T10:51:01.362Z,1.20
2023-01-07T10:53:40.152Z,1.17
2023-01-07T10:56:18.783Z,1.20
2023-01-07T10:58:47.995Z,1.40
2023-01-07T11:01:22.541Z,1.40
2023-01-07T11:03:51.654Z,1.10
2023-01-07T11:06:41.504Z,1.30
2023-01-07T11:09:14.680Z,1.13
2023-01-07T11:11:43.804Z,1.30
2023-01-07T11:14:15.027Z,1.30
2023-01-07T11:16:48.378Z,1.30
2023-01-07T11:19:16.677Z,1.43
2023-01-07T11:21:48.528Z,1.40
2023-01-07T11:24:32.865Z,1.20
2023-01-07T11:27:03.993Z,1.30
2023-01-07T11:29:38.436Z,1.67
2023-01-07T11:32:07.194Z,1.80
2023-01-07T11:34:38.568Z,1.50
2023-01-07T11:37:07.896Z,1.40
2023-01-07T11:39:37.320Z,1.50
2023-01-07T11:42:34.344Z,1.30
2023-01-07T11:45:15.789Z,1.33
2023-01-07T11:47:48.831Z,1.60
2023-01-07T11:50:28.884Z,1.63
2023-01-07T11:53:00.814Z,2.20
2023-01-07T11:55:29.774Z,1.80
2023-01-07T11:58:28.568Z,1.80
2023-01-07T12:00:46.794Z,1.60
2023-01-07T12:03:15.713Z,1.50
2023-01-07T12:05:45.426Z,1.50
2023-01-07T12:08:23.809Z,1.50
2023-01-07T12:10:57.280Z,1.30
2023-01-07T12:13:28.210Z,1.50
2023-01-07T12:15:59.142Z,1.90
2023-01-07T12:18:42.587Z,1.87
2023-01-07T12:21:35.024Z,1.80
2023-01-07T12:24:20.526Z,2.00
2023-01-07T12:26:53.598Z,1.90
2023-01-07T12:29:38.525Z,1.83
2023-01-07T12:32:21.013Z,1.57
2023-01-07T12:34:55.409Z,2.00
2023-01-07T12:37:35.182Z,1.40
2023-01-07T12:40:21.060Z,1.53
2023-01-07T12:42:54.015Z,1.60
2023-01-07T12:45:28.157Z,2.10
2023-01-07T12:48:02.287Z,1.40
2023-01-07T12:50:35.849Z,1.50
2023-01-07T12:53:13.047Z,1.50
2023-01-07T12:55:46.383Z,1.80
2023-01-07T12:58:20.269Z,1.90
2023-01-07T13:00:57.593Z,1.40
2023-01-07T13:03:45.420Z,1.70
2023-01-07T13:06:19.487Z,1.70
2023-01-07T13:08:54.329Z,1.43
2023-01-07T13:11:41.577Z,1.47
2023-01-07T13:14:19.122Z,1.77
2023-01-07T13:16:47.075Z,1.80
2023-01-07T13:19:15.003Z,1.80
2023-01-07T13:21:45.697Z,1.73
2023-01-07T13:24:55.598Z,2.07
2023-01-07T13:27:35.579Z,1.90
2023-01-07T13:30:15.939Z,2.00
2023-01-07T13:33:03.495Z,2.07
2023-01-07T13:35:43.739Z,1.80
2023-01-07T13:38:40.488Z,1.80
2023-01-07T13:41:20.635Z,2.00
2023-01-07T13:44:10.197Z,1.90
2023-01-07T13:46:42.735Z,2.10
2023-01-07T13:49:26.429Z,2.10
2023-01-07T13:51:55.068Z,1.90
2023-01-07T13:54:57.657Z,2.17
2023-01-07T13:57:44.855Z,2.07
2023-01-07T14:00:43.289Z,1.90
2023-01-07T14:03:43.184Z,2.00
2023-01-07T14:06:46.412Z,1.90
2023-01-07T14:09:28.465Z,1.70
2023-01-07T14:12:34.880Z,2.00
2023-01-07T14:15:35.034Z,1.90
2023-01-07T14:18:29.486Z,2.10
2023-01-07T14:21:10.944Z,1.97
2023-01-07T14:23:48.243Z,2.00
2023-01-07T14:26:23.504Z,2.00
2023-01-07T14:29:17.490Z,1.87
2023-01-07T14:31:45.808Z,2.10
2023-01-07T14:34:21.578Z,1.80
2023-01-07T14:37:29.673Z,2.10
2023-01-07T14:39:58.535Z,1.80
2023-01-07T14:42:44.963Z,1.90
2023-01-07T14:45:49.984Z,1.90
2023-01-07T14:48:37.837Z,1.63
2023-01-07T14:51:35.606Z,1.90
2023-01-07T14:54:35.914Z,1.70
2023-01-07T14:57:11.843Z,2.00
2023-01-07T15:00:18.561Z,2.13
2023-01-07T15:03:19.104Z,2.30
2023-01-07T15:06:24.997Z,2.00
2023-01-07T15:09:18.402Z,2.40
2023-01-07T15:12:05.963Z,2.30
2023-01-07T15:14:56.256Z,2.73
2023-01-07T15:17:24.676Z,2.00
2023-01-07T15:19:53.690Z,2.20
2023-01-07T15:22:34.888Z,2.30
2023-01-07T15:25:11.416Z,2.20
2023-01-07T15:27:47.528Z,1.97
2023-01-07T15:30:29.440Z,2.10
2023-01-07T15:33:05.448Z,2.00
2023-01-07T15:35:38.223Z,2.10
2023-01-07T15:38:25.365Z,2.00
2023-01-07T15:40:53.720Z,2.00
2023-01-07T15:43:24.151Z,2.07
2023-01-07T15:45:59.649Z,2.00
2023-01-07T15:48:27.597Z,2.00
2023-01-07T15:50:55.863Z,2.00
2023-01-07T15:53:27.154Z,2.10
2023-01-07T15:55:59.634Z,2.30
2023-01-07T15:58:36.947Z,2.00
2023-01-07T16:01:05.725Z,2.00
2023-01-07T16:03:37.162Z,3.17
2023-01-07T16:06:05.625Z,2.33
2023-01-07T16:08:35.119Z,2.17
2023-01-07T16:11:05.617Z,2.20
2023-01-07T16:13:35.086Z,2.10
2023-01-07T16:16:05.873Z,2.57
2023-01-07T16:18:34.372Z,2.33
2023-01-07T16:21:06.005Z,3.00
2023-01-07T16:23:36.881Z,2.30
2023-01-07T16:26:07.479Z,1.90
2023-01-07T16:28:40.067Z,2.27
2023-01-07T16:31:11.027Z,2.07
2023-01-07T16:33:39.843Z,2.07
2023-01-07T16:36:11.228Z,2.33
2023-01-07T16:38:40.830Z,2.17
2023-01-07T16:41:10.343Z,2.87
2023-01-07T16:43:48.411Z,2.50
2023-01-07T16:46:27.789Z,2.70
2023-01-07T16:49:23.006Z,2.40
2023-01-07T16:51:53.360Z,2.80
2023-01-07T16:54:31.676Z,2.20
2023-01-07T16:57:00.691Z,2.67
2023-01-07T16:59:31.264Z,2.40
2023-01-07T17:02:02.551Z,2.93
2023-01-07T17:04:31.621Z,2.70
2023-01-07T17:07:01.208Z,2.70
2023-01-07T17:09:36.404Z,2.70
2023-01-07T17:12:05.388Z,2.83
2023-01-07T17:14:48.743Z,2.70
2023-01-07T17:17:24.929Z,2.63
2023-01-07T17:19:58.321Z,2.80
2023-01-07T17:22:31.583Z,2.97
2023-01-07T17:25:10.911Z,2.80
2023-01-07T17:27:43.588Z,2.70
2023-01-07T17:30:17.433Z,3.53
2023-01-07T17:32:46.617Z,2.70
2023-01-07T17:35:19.743Z,3.43
2023-01-07T17:37:47.875Z,3.27
2023-01-07T17:40:17.537Z,3.20
2023-01-07T17:43:04.918Z,3.93
2023-01-07T17:45:33.415Z,3.00
2023-01-07T17:48:01.502Z,3.17
2023-01-07T17:50:36.450Z,3.50
2023-01-07T17:53:05.053Z,3.20
2023-01-07T17:55:37.027Z,3.30
2023-01-07T17:58:05.719Z,3.67
2023-01-07T18:00:36.647Z,3.60
2023-01-07T18:03:05.015Z,3.37
2023-01-07T18:05:33.118Z,3.10
2023-01-07T18:08:01.030Z,3.00
2023-01-07T18:10:51.893Z,3.17
2023-01-07T18:13:20.166Z,2.90
2023-01-07T18:15:48.083Z,2.87
2023-01-07T18:18:16.117Z,3.10
2023-01-07T18:20:43.972Z,3.20
2023-01-07T18:23:12.570Z,3.30
2023-01-07T18:25:43.349Z,3.03
2023-01-07T18:28:11.780Z,2.83
2023-01-07T18:30:41.609Z,2.90
2023-01-07T18:33:11.278Z,2.60
2023-01-07T18:35:40.446Z,2.90
2023-01-07T18:38:13.676Z,2.80
2023-01-07T18:40:41.994Z,2.47
2023-01-07T18:43:13.103Z,2.87
2023-01-07T18:45:43.342Z,2.50
2023-01-07T18:48:12.318Z,3.03
2023-01-07T18:50:42.032Z,3.03
2023-01-07T18:53:10.558Z,2.40
2023-01-07T18:55:39.157Z,2.43
2023-01-07T18:58:07.788Z,2.30
2023-01-07T19:00:35.942Z,2.60
2023-01-07T19:03:05.335Z,2.70
2023-01-07T19:05:33.395Z,2.57
2023-01-07T19:08:01.313Z,2.47
2023-01-07T19:10:29.179Z,2.60
2023-01-07T19:12:57.055Z,2.70
2023-01-07T19:15:24.959Z,2.63
2023-01-07T19:17:52.876Z,2.30
2023-01-07T19:20:22.090Z,2.47
2023-01-07T19:22:49.953Z,3.07
2023-01-07T19:25:17.989Z,2.63
2023-01-07T19:27:45.906Z,2.30
2023-01-07T19:30:14.290Z,2.83
2023-01-07T19:32:42.167Z,2.30
2023-01-07T19:35:10.476Z,2.30
2023-01-07T19:37:39.868Z,2.30
2023-01-07T19:40:08.783Z,2.10
2023-01-07T19:42:36.676Z,2.57
2023-01-07T19:45:04.965Z,2.10
2023-01-07T19:47:33.194Z,2.40
2023-01-07T19:50:01.068Z,1.87
2023-01-07T19:52:29.224Z,1.83
2023-01-07T19:54:58.426Z,2.00
2023-01-07T19:57:26.366Z,1.87
2023-01-07T19:59:54.219Z,1.87
2023-01-07T20:02:22.244Z,1.70
2023-01-07T20:04:50.297Z,1.90
2023-01-07T20:07:18.225Z,1.90
2023-01-07T20:09:46.176Z,1.70
2023-01-07T20:12:15.396Z,1.90
2023-01-07T20:14:44.967Z,2.00
2023-01-07T20:17:12.874Z,1.87
2023-01-07T20:19:40.769Z,2.23
2023-01-07T20:22:10.523Z,2.17
2023-01-07T20:24:38.509Z,2.00
2023-01-07T20:27:06.370Z,1.80
2023-01-07T20:29:36.739Z,1.83
2023-01-07T20:32:07.377Z,2.10
2023-01-07T20:34:35.395Z,1.80
2023-01-07T20:37:04.297Z,1.70
2023-01-07T20:39:32.165Z,1.87
2023-01-07T20:42:00.135Z,1.50
2023-01-07T20:44:27.998Z,1.73
2023-01-07T20:46:57.263Z,1.70
2023-01-07T20:49:25.228Z,1.80
2023-01-07T20:51:53.167Z,1.83
2023-01-07T20:54:21.097Z,1.90
2023-01-07T20:56:49.036Z,1.90
2023-01-07T20:59:17.183Z,1.90
2023-01-07T21:01:45.249Z,2.10
2023-01-07T21:04:14.632Z,2.37
2023-01-07T21:06:45.342Z,2.00
2023-01-07T21:09:13.463Z,1.90
2023-01-07T21:11:43.074Z,2.30
2023-01-07T21:14:10.972Z,2.10
2023-01-07T21:16:38.811Z,2.00
2023-01-07T21:19:06.695Z,2.00
2023-01-07T21:21:35.934Z,2.10
2023-01-07T21:24:03.976Z,2.47
2023-01-07T21:26:32.190Z,2.30
2023-01-07T21:29:00.093Z,2.07
2023-01-07T21:31:28.336Z,1.90
2023-01-07T21:33:58.272Z,2.13
2023-01-07T21:36:28.138Z,2.23
2023-01-07T21:38:59.089Z,2.00
2023-01-07T21:41:28.196Z,2.00
2023-01-07T21:43:56.332Z,2.17
2023-01-07T21:46:24.356Z,2.37
2023-01-07T21:48:52.736Z,2.30
2023-01-07T21:51:23.082Z,2.10
2023-01-07T21:53:52.313Z,2.33
2023-01-07T21:56:21.623Z,2.20
2023-01-07T21:58:50.256Z,2.40
2023-01-07T22:01:19.388Z,2.60
2023-01-07T22:03:49.237Z,2.17
2023-01-07T22:06:19.797Z,2.30
2023-01-07T22:08:47.859Z,2.30
2023-01-07T22:11:17.509Z,2.23
2023-01-07T22:13:50.919Z,2.10
2023-01-07T22:16:19.879Z,2.20
2023-01-07T22:18:47.999Z,2.30
2023-01-07T22:21:16.219Z,2.37
2023-01-07T22:23:45.788Z,2.10
2023-01-07T22:26:15.585Z,2.40
2023-01-07T22:28:45.905Z,2.47
2023-01-07T22:31:19.408Z,2.27
2023-01-07T22:33:47.511Z,2.50
2023-01-07T22:36:18.995Z,2.50
2023-01-07T22:38:47.387Z,2.43
2023-01-07T22:41:15.439Z,2.60
2023-01-07T22:43:43.656Z,2.40
2023-01-07T22:46:18.291Z,2.60
2023-01-07T22:48:46.421Z,2.30
2023-01-07T22:51:19.875Z,2.90
2023-01-07T22:53:48.240Z,2.30
2023-01-07T22:56:16.271Z,2.40
2023-01-07T22:58:44.206Z,2.70
2023-01-07T23:01:15.156Z,2.40
2023-01-07T23:03:43.917Z,2.53
2023-01-07T23:06:13.823Z,3.00
2023-01-07T23:08:42.364Z,2.93
2023-01-07T23:11:10.921Z,2.53
2023-01-07T23:13:39.095Z,2.47
2023-01-07T23:16:08.146Z,2.50
2023-01-07T23:18:37.453Z,3.00
2023-01-07T23:21:06.083Z,2.60
2023-01-07T23:23:34.008Z,2.50
2023-01-07T23:26:01.903Z,2.70
2023-01-07T23:28:29.795Z,2.57
2023-01-07T23:31:01.625Z,2.37
2023-01-07T23:33:29.586Z,2.30
2023-01-07T23:36:04.121Z,2.43
2023-01-07T23:38:32.111Z,2.53
2023-01-07T23:41:03.598Z,2.60
2023-01-07T23:43:32.025Z,2.50
2023-01-07T23:46:00.664Z,2.40
2023-01-07T23:48:30.352Z,2.50
2023-01-07T23:51:03.999Z,2.40
2023-01-07T23:53:33.264Z,2.73
2023-01-07T23:56:01.455Z,2.73
2023-01-07T23:58:29.965Z,2.80
